CheckWX is a tool to help pilots better visualize weather data.  It is not intended as a substitute for an official pre-flight weather briefing.

07:25:02 UTC

LPBJ TAF
Beja International Airport
Beja, Portugal
TAF LPBJ 190515Z 1906/2006 22008KT 9999 SCT015 SCT030 TEMPO 1906/1911 3000 -RADZ BR SCT003 BKN006 BECMG 1910/1912 SCT030 BECMG 1922/1924 30005KT 5000 BCFG SCT004 PROB40 2000/2006 0800 FG BKN002

Jun-19@
06:00 UTC

Jun-19 @ 06:00 UTC

Jun-19@
10:00 UTC

Jun-19 @ 10:00 UTC

TAF LPBJ 190515Z 1906/2006 22008KT 9999 SCT015 SCT030
Wind
  • 220° at 8 KTS
Cloud Levels
  • Scattered at 1,500' AGL
  • Scattered at 3,000' AGL

Jun-19@
06:00 UTC

Jun-19 @ 06:00 UTC

Jun-19@
11:00 UTC

Jun-19 @ 11:00 UTC

TEMPO 1906/1911 3000 -RADZ BR SCT003 BKN006

Temporary

Temporary Changes expected for less than half the time period

Conditions
Light Rain, Light Drizzle, Mist
Cloud Levels
  • Scattered at 300' AGL
  • Broken at 600' AGL

Jun-19@
10:00 UTC

Jun-19 @ 10:00 UTC

Jun-19@
22:00 UTC

Jun-19 @ 22:00 UTC

BECMG 1910/1912 SCT030

Becoming

Becoming Conditions expected by Wed, Jun 19, 2019 @ 12:00 UTC

Wind
  • 220° at 8 KTS
Cloud Levels
  • Scattered at 3,000' AGL

Jun-19@
22:00 UTC

Jun-19 @ 22:00 UTC

Jun-20@
06:00 UTC

Jun-20 @ 06:00 UTC

BECMG 1922/1924 30005KT 5000 BCFG SCT004

Becoming

Becoming Conditions expected by Thu, Jun 20, 2019 @ 00:00 UTC

Wind
  • 300° at 5 KTS
Conditions
Patches of Fog
Cloud Levels
  • Scattered at 400' AGL

Jun-20@
00:00 UTC

Jun-20 @ 00:00 UTC

Jun-20@
06:00 UTC

Jun-20 @ 06:00 UTC

PROB40 2000/2006 0800 FG BKN002

Probable - 40% Likelihood

Probable - 40% Likelihood during this time.

Conditions
Fog
Cloud Levels
  • Broken at 200' AGL